sensor_id;sensor_type;location;lat;lon;timestamp;temperature;humidity
76785;SHT30;66893;44.316;0.092;2023-11-22T00:01:03;17.89;59.67
76785;SHT30;66893;44.316;0.092;2023-11-22T00:03:29;17.87;59.73
76785;SHT30;66893;44.316;0.092;2023-11-22T00:05:54;17.89;59.72
76785;SHT30;66893;44.316;0.092;2023-11-22T00:08:19;17.89;59.68
76785;SHT30;66893;44.316;0.092;2023-11-22T00:10:45;17.86;59.72
76785;SHT30;66893;44.316;0.092;2023-11-22T00:13:10;17.89;59.69
76785;SHT30;66893;44.316;0.092;2023-11-22T00:15:37;17.89;59.72
76785;SHT30;66893;44.316;0.092;2023-11-22T00:18:02;17.86;59.71
76785;SHT30;66893;44.316;0.092;2023-11-22T00:20:29;17.90;59.72
76785;SHT30;66893;44.316;0.092;2023-11-22T00:22:55;17.89;59.71
76785;SHT30;66893;44.316;0.092;2023-11-22T00:25:20;17.87;59.69
76785;SHT30;66893;44.316;0.092;2023-11-22T00:27:46;17.89;59.69
76785;SHT30;66893;44.316;0.092;2023-11-22T00:30:12;17.87;59.67
76785;SHT30;66893;44.316;0.092;2023-11-22T00:32:38;17.87;59.70
76785;SHT30;66893;44.316;0.092;2023-11-22T00:35:06;17.86;59.71
76785;SHT30;66893;44.316;0.092;2023-11-22T00:37:32;17.86;59.75
76785;SHT30;66893;44.316;0.092;2023-11-22T00:40:00;17.85;59.76
76785;SHT30;66893;44.316;0.092;2023-11-22T00:42:25;17.86;59.73
76785;SHT30;66893;44.316;0.092;2023-11-22T00:44:52;17.83;59.74
76785;SHT30;66893;44.316;0.092;2023-11-22T00:47:18;17.85;59.74
76785;SHT30;66893;44.316;0.092;2023-11-22T00:49:44;17.86;59.74
76785;SHT30;66893;44.316;0.092;2023-11-22T00:52:09;17.85;59.77
76785;SHT30;66893;44.316;0.092;2023-11-22T00:54:35;17.85;59.75
76785;SHT30;66893;44.316;0.092;2023-11-22T00:57:00;17.85;59.77
76785;SHT30;66893;44.316;0.092;2023-11-22T00:59:26;17.86;59.78
76785;SHT30;66893;44.316;0.092;2023-11-22T01:01:51;17.85;59.78
76785;SHT30;66893;44.316;0.092;2023-11-22T01:04:17;17.83;59.78
76785;SHT30;66893;44.316;0.092;2023-11-22T01:06:42;17.82;59.83
76785;SHT30;66893;44.316;0.092;2023-11-22T01:09:08;17.82;59.79
76785;SHT30;66893;44.316;0.092;2023-11-22T01:11:39;17.82;59.78
76785;SHT30;66893;44.316;0.092;2023-11-22T01:14:04;17.79;59.77
76785;SHT30;66893;44.316;0.092;2023-11-22T01:16:30;17.81;59.81
76785;SHT30;66893;44.316;0.092;2023-11-22T01:18:56;17.81;59.80
76785;SHT30;66893;44.316;0.092;2023-11-22T01:21:21;17.81;59.79
76785;SHT30;66893;44.316;0.092;2023-11-22T01:23:46;17.82;59.77
76785;SHT30;66893;44.316;0.092;2023-11-22T01:26:12;17.82;59.77
76785;SHT30;66893;44.316;0.092;2023-11-22T01:28:37;17.82;59.76
76785;SHT30;66893;44.316;0.092;2023-11-22T01:31:05;17.82;59.73
76785;SHT30;66893;44.316;0.092;2023-11-22T01:33:30;17.83;59.77
76785;SHT30;66893;44.316;0.092;2023-11-22T01:35:57;17.83;59.78
76785;SHT30;66893;44.316;0.092;2023-11-22T01:38:23;17.82;59.77
76785;SHT30;66893;44.316;0.092;2023-11-22T01:40:51;17.81;59.75
76785;SHT30;66893;44.316;0.092;2023-11-22T01:43:18;17.79;59.78
76785;SHT30;66893;44.316;0.092;2023-11-22T01:45:43;17.78;59.77
76785;SHT30;66893;44.316;0.092;2023-11-22T01:48:10;17.79;59.76
76785;SHT30;66893;44.316;0.092;2023-11-22T01:50:40;17.78;59.78
76785;SHT30;66893;44.316;0.092;2023-11-22T01:53:09;17.79;59.80
76785;SHT30;66893;44.316;0.092;2023-11-22T01:55:35;17.79;59.80
76785;SHT30;66893;44.316;0.092;2023-11-22T01:58:01;17.78;59.79
76785;SHT30;66893;44.316;0.092;2023-11-22T02:00:36;17.76;59.80
76785;SHT30;66893;44.316;0.092;2023-11-22T02:03:02;17.78;59.77
76785;SHT30;66893;44.316;0.092;2023-11-22T02:05:27;17.75;59.79
76785;SHT30;66893;44.316;0.092;2023-11-22T02:07:53;17.76;59.80
76785;SHT30;66893;44.316;0.092;2023-11-22T02:10:18;17.76;59.76
76785;SHT30;66893;44.316;0.092;2023-11-22T02:12:44;17.76;59.79
76785;SHT30;66893;44.316;0.092;2023-11-22T02:15:10;17.75;59.74
76785;SHT30;66893;44.316;0.092;2023-11-22T02:17:36;17.78;59.73
76785;SHT30;66893;44.316;0.092;2023-11-22T02:20:02;17.78;59.70
76785;SHT30;66893;44.316;0.092;2023-11-22T02:22:31;17.79;59.73
76785;SHT30;66893;44.316;0.092;2023-11-22T02:24:56;17.76;59.74
76785;SHT30;66893;44.316;0.092;2023-11-22T02:27:22;17.74;59.75
76785;SHT30;66893;44.316;0.092;2023-11-22T02:29:47;17.76;59.74
76785;SHT30;66893;44.316;0.092;2023-11-22T02:32:13;17.75;59.71
76785;SHT30;66893;44.316;0.092;2023-11-22T02:34:38;17.75;59.70
76785;SHT30;66893;44.316;0.092;2023-11-22T02:37:04;17.74;59.67
76785;SHT30;66893;44.316;0.092;2023-11-22T02:39:41;17.75;59.66
76785;SHT30;66893;44.316;0.092;2023-11-22T02:42:09;17.74;59.68
76785;SHT30;66893;44.316;0.092;2023-11-22T02:44:34;17.76;59.67
76785;SHT30;66893;44.316;0.092;2023-11-22T02:47:00;17.76;59.63
76785;SHT30;66893;44.316;0.092;2023-11-22T02:49:25;17.75;59.62
76785;SHT30;66893;44.316;0.092;2023-11-22T02:51:51;17.74;59.64
76785;SHT30;66893;44.316;0.092;2023-11-22T02:54:16;17.72;59.63
76785;SHT30;66893;44.316;0.092;2023-11-22T02:56:41;17.72;59.59
76785;SHT30;66893;44.316;0.092;2023-11-22T02:59:07;17.74;59.57
76785;SHT30;66893;44.316;0.092;2023-11-22T03:01:38;17.72;59.57
76785;SHT30;66893;44.316;0.092;2023-11-22T03:04:04;17.72;59.52
76785;SHT30;66893;44.316;0.092;2023-11-22T03:06:29;17.69;59.47
76785;SHT30;66893;44.316;0.092;2023-11-22T03:08:55;17.72;59.45
76785;SHT30;66893;44.316;0.092;2023-11-22T03:11:21;17.71;59.43
76785;SHT30;66893;44.316;0.092;2023-11-22T03:13:47;17.72;59.43
76785;SHT30;66893;44.316;0.092;2023-11-22T03:16:14;17.69;59.42
76785;SHT30;66893;44.316;0.092;2023-11-22T03:18:39;17.69;59.39
76785;SHT30;66893;44.316;0.092;2023-11-22T03:21:05;17.69;59.33
76785;SHT30;66893;44.316;0.092;2023-11-22T03:23:30;17.68;59.33
76785;SHT30;66893;44.316;0.092;2023-11-22T03:25:56;17.71;59.27
76785;SHT30;66893;44.316;0.092;2023-11-22T03:28:22;17.68;59.25
76785;SHT30;66893;44.316;0.092;2023-11-22T03:30:48;17.67;59.27
76785;SHT30;66893;44.316;0.092;2023-11-22T03:33:13;17.68;59.21
76785;SHT30;66893;44.316;0.092;2023-11-22T03:35:40;17.64;59.18
76785;SHT30;66893;44.316;0.092;2023-11-22T03:38:06;17.67;59.21
76785;SHT30;66893;44.316;0.092;2023-11-22T03:40:31;17.64;59.14
76785;SHT30;66893;44.316;0.092;2023-11-22T03:42:57;17.65;59.08
76785;SHT30;66893;44.316;0.092;2023-11-22T03:45:22;17.62;59.17
76785;SHT30;66893;44.316;0.092;2023-11-22T03:47:48;17.61;59.17
76785;SHT30;66893;44.316;0.092;2023-11-22T03:50:13;17.61;59.15
76785;SHT30;66893;44.316;0.092;2023-11-22T03:52:39;17.58;59.12
76785;SHT30;66893;44.316;0.092;2023-11-22T03:55:05;17.61;59.14
76785;SHT30;66893;44.316;0.092;2023-11-22T03:57:31;17.55;59.13
76785;SHT30;66893;44.316;0.092;2023-11-22T03:59:56;17.55;59.12
76785;SHT30;66893;44.316;0.092;2023-11-22T04:02:21;17.52;59.15
76785;SHT30;66893;44.316;0.092;2023-11-22T04:04:47;17.54;59.15
76785;SHT30;66893;44.316;0.092;2023-11-22T04:07:12;17.54;59.14
76785;SHT30;66893;44.316;0.092;2023-11-22T04:09:38;17.55;59.11
76785;SHT30;66893;44.316;0.092;2023-11-22T04:12:03;17.54;59.09
76785;SHT30;66893;44.316;0.092;2023-11-22T04:14:29;17.54;59.07
76785;SHT30;66893;44.316;0.092;2023-11-22T04:16:54;17.55;59.04
76785;SHT30;66893;44.316;0.092;2023-11-22T04:19:20;17.54;59.02
76785;SHT30;66893;44.316;0.092;2023-11-22T04:21:46;17.52;59.03
76785;SHT30;66893;44.316;0.092;2023-11-22T04:24:11;17.50;58.99
76785;SHT30;66893;44.316;0.092;2023-11-22T04:26:37;17.52;58.99
76785;SHT30;66893;44.316;0.092;2023-11-22T04:29:03;17.50;58.98
76785;SHT30;66893;44.316;0.092;2023-11-22T04:31:30;17.51;59.02
76785;SHT30;66893;44.316;0.092;2023-11-22T04:33:55;17.47;59.04
76785;SHT30;66893;44.316;0.092;2023-11-22T04:36:23;17.47;59.07
76785;SHT30;66893;44.316;0.092;2023-11-22T04:38:48;17.47;59.03
76785;SHT30;66893;44.316;0.092;2023-11-22T04:41:15;17.45;59.04
76785;SHT30;66893;44.316;0.092;2023-11-22T04:43:41;17.42;59.07
76785;SHT30;66893;44.316;0.092;2023-11-22T04:46:07;17.47;59.07
76785;SHT30;66893;44.316;0.092;2023-11-22T04:48:34;17.44;59.04
76785;SHT30;66893;44.316;0.092;2023-11-22T04:50:59;17.41;59.03
76785;SHT30;66893;44.316;0.092;2023-11-22T04:53:24;17.44;59.05
76785;SHT30;66893;44.316;0.092;2023-11-22T04:55:50;17.42;59.03
76785;SHT30;66893;44.316;0.092;2023-11-22T04:58:15;17.41;59.05
76785;SHT30;66893;44.316;0.092;2023-11-22T05:00:41;17.40;59.00
76785;SHT30;66893;44.316;0.092;2023-11-22T05:03:06;17.40;59.05
76785;SHT30;66893;44.316;0.092;2023-11-22T05:05:31;17.38;59.04
76785;SHT30;66893;44.316;0.092;2023-11-22T05:07:57;17.35;59.03
76785;SHT30;66893;44.316;0.092;2023-11-22T05:10:22;17.38;59.03
76785;SHT30;66893;44.316;0.092;2023-11-22T05:12:48;17.37;59.02
76785;SHT30;66893;44.316;0.092;2023-11-22T05:15:13;17.35;59.02
76785;SHT30;66893;44.316;0.092;2023-11-22T05:17:39;17.34;59.02
76785;SHT30;66893;44.316;0.092;2023-11-22T05:20:06;17.31;58.99
76785;SHT30;66893;44.316;0.092;2023-11-22T05:22:34;17.32;58.99
76785;SHT30;66893;44.316;0.092;2023-11-22T05:25:00;17.30;58.99
76785;SHT30;66893;44.316;0.092;2023-11-22T05:27:25;17.31;59.01
76785;SHT30;66893;44.316;0.092;2023-11-22T05:29:51;17.30;59.02
76785;SHT30;66893;44.316;0.092;2023-11-22T05:32:16;17.28;59.03
76785;SHT30;66893;44.316;0.092;2023-11-22T05:34:42;17.30;59.04
76785;SHT30;66893;44.316;0.092;2023-11-22T05:37:08;17.31;58.99
76785;SHT30;66893;44.316;0.092;2023-11-22T05:39:34;17.27;58.99
76785;SHT30;66893;44.316;0.092;2023-11-22T05:41:59;17.28;58.99
76785;SHT30;66893;44.316;0.092;2023-11-22T05:44:25;17.30;59.02
76785;SHT30;66893;44.316;0.092;2023-11-22T05:46:51;17.27;59.00
76785;SHT30;66893;44.316;0.092;2023-11-22T05:49:17;17.26;59.03
76785;SHT30;66893;44.316;0.092;2023-11-22T05:51:42;17.26;58.99
76785;SHT30;66893;44.316;0.092;2023-11-22T05:54:08;17.24;59.05
76785;SHT30;66893;44.316;0.092;2023-11-22T05:56:34;17.24;59.01
76785;SHT30;66893;44.316;0.092;2023-11-22T05:58:59;17.24;59.04
76785;SHT30;66893;44.316;0.092;2023-11-22T06:01:25;17.26;59.04
76785;SHT30;66893;44.316;0.092;2023-11-22T06:03:51;17.24;59.06
76785;SHT30;66893;44.316;0.092;2023-11-22T06:06:17;17.23;59.05
76785;SHT30;66893;44.316;0.092;2023-11-22T06:08:42;17.23;59.05
76785;SHT30;66893;44.316;0.092;2023-11-22T06:11:08;17.20;59.08
76785;SHT30;66893;44.316;0.092;2023-11-22T06:13:33;17.21;59.06
76785;SHT30;66893;44.316;0.092;2023-11-22T06:15:59;17.20;59.10
76785;SHT30;66893;44.316;0.092;2023-11-22T06:18:24;17.20;59.11
76785;SHT30;66893;44.316;0.092;2023-11-22T06:20:56;17.26;59.08
76785;SHT30;66893;44.316;0.092;2023-11-22T06:23:21;17.24;59.05
76785;SHT30;66893;44.316;0.092;2023-11-22T06:25:47;17.23;59.06
76785;SHT30;66893;44.316;0.092;2023-11-22T06:28:12;17.23;59.08
76785;SHT30;66893;44.316;0.092;2023-11-22T06:30:38;17.24;59.07
76785;SHT30;66893;44.316;0.092;2023-11-22T06:33:03;17.23;59.10
76785;SHT30;66893;44.316;0.092;2023-11-22T06:35:29;17.23;59.11
76785;SHT30;66893;44.316;0.092;2023-11-22T06:37:54;17.23;59.11
76785;SHT30;66893;44.316;0.092;2023-11-22T06:40:19;17.21;59.11
76785;SHT30;66893;44.316;0.092;2023-11-22T06:42:48;17.21;59.10
76785;SHT30;66893;44.316;0.092;2023-11-22T06:45:13;17.23;59.12
76785;SHT30;66893;44.316;0.092;2023-11-22T06:47:39;17.23;59.09
76785;SHT30;66893;44.316;0.092;2023-11-22T06:50:05;17.24;59.06
76785;SHT30;66893;44.316;0.092;2023-11-22T06:52:37;17.23;59.12
76785;SHT30;66893;44.316;0.092;2023-11-22T06:55:04;17.24;59.10
76785;SHT30;66893;44.316;0.092;2023-11-22T06:57:29;17.21;59.13
76785;SHT30;66893;44.316;0.092;2023-11-22T06:59:56;17.21;59.15
76785;SHT30;66893;44.316;0.092;2023-11-22T07:02:21;17.23;59.14
76785;SHT30;66893;44.316;0.092;2023-11-22T07:04:47;17.24;59.14
76785;SHT30;66893;44.316;0.092;2023-11-22T07:07:12;17.23;59.10
76785;SHT30;66893;44.316;0.092;2023-11-22T07:09:42;17.23;59.09
76785;SHT30;66893;44.316;0.092;2023-11-22T07:12:08;17.23;59.10
76785;SHT30;66893;44.316;0.092;2023-11-22T07:14:33;17.24;59.14
76785;SHT30;66893;44.316;0.092;2023-11-22T07:16:59;17.24;59.07
76785;SHT30;66893;44.316;0.092;2023-11-22T07:19:25;17.30;59.08
76785;SHT30;66893;44.316;0.092;2023-11-22T07:21:50;17.28;59.05
76785;SHT30;66893;44.316;0.092;2023-11-22T07:24:17;17.28;59.02
76785;SHT30;66893;44.316;0.092;2023-11-22T07:26:43;17.30;59.03
76785;SHT30;66893;44.316;0.092;2023-11-22T07:29:09;17.34;58.99
76785;SHT30;66893;44.316;0.092;2023-11-22T07:31:34;17.32;58.96
76785;SHT30;66893;44.316;0.092;2023-11-22T07:34:01;17.37;58.94
76785;SHT30;66893;44.316;0.092;2023-11-22T07:36:29;17.32;58.99
76785;SHT30;66893;44.316;0.092;2023-11-22T07:38:56;17.34;58.99
76785;SHT30;66893;44.316;0.092;2023-11-22T07:41:22;17.37;58.94
76785;SHT30;66893;44.316;0.092;2023-11-22T07:43:47;17.32;58.92
76785;SHT30;66893;44.316;0.092;2023-11-22T07:46:13;17.32;58.93
76785;SHT30;66893;44.316;0.092;2023-11-22T07:48:39;17.28;58.89
76785;SHT30;66893;44.316;0.092;2023-11-22T07:51:06;17.31;59.00
76785;SHT30;66893;44.316;0.092;2023-11-22T07:53:32;17.30;58.96
76785;SHT30;66893;44.316;0.092;2023-11-22T07:56:02;17.31;58.97
76785;SHT30;66893;44.316;0.092;2023-11-22T07:58:31;17.32;58.97
76785;SHT30;66893;44.316;0.092;2023-11-22T08:00:58;17.32;58.93
76785;SHT30;66893;44.316;0.092;2023-11-22T08:03:24;17.31;58.93
76785;SHT30;66893;44.316;0.092;2023-11-22T08:05:53;17.34;58.93
76785;SHT30;66893;44.316;0.092;2023-11-22T08:08:23;17.31;58.89
76785;SHT30;66893;44.316;0.092;2023-11-22T08:10:50;17.35;58.92
76785;SHT30;66893;44.316;0.092;2023-11-22T08:13:22;17.32;58.89
76785;SHT30;66893;44.316;0.092;2023-11-22T08:15:50;17.32;58.86
76785;SHT30;66893;44.316;0.092;2023-11-22T08:18:16;17.34;58.91
76785;SHT30;66893;44.316;0.092;2023-11-22T08:20:45;17.35;58.87
76785;SHT30;66893;44.316;0.092;2023-11-22T08:23:10;17.35;58.91
76785;SHT30;66893;44.316;0.092;2023-11-22T08:25:38;17.37;58.84
76785;SHT30;66893;44.316;0.092;2023-11-22T08:28:03;17.38;58.90
76785;SHT30;66893;44.316;0.092;2023-11-22T08:30:29;17.40;58.97
76785;SHT30;66893;44.316;0.092;2023-11-22T08:32:58;17.41;59.00
76785;SHT30;66893;44.316;0.092;2023-11-22T08:35:23;17.41;59.04
76785;SHT30;66893;44.316;0.092;2023-11-22T08:37:49;17.45;59.11
76785;SHT30;66893;44.316;0.092;2023-11-22T08:40:16;17.44;59.17
76785;SHT30;66893;44.316;0.092;2023-11-22T08:42:48;17.44;59.13
76785;SHT30;66893;44.316;0.092;2023-11-22T08:45:14;17.47;59.19
76785;SHT30;66893;44.316;0.092;2023-11-22T08:47:40;17.47;59.19
76785;SHT30;66893;44.316;0.092;2023-11-22T08:50:07;17.51;59.23
76785;SHT30;66893;44.316;0.092;2023-11-22T08:52:34;17.50;59.21
76785;SHT30;66893;44.316;0.092;2023-11-22T08:54:59;17.52;59.23
76785;SHT30;66893;44.316;0.092;2023-11-22T08:57:26;17.54;59.24
76785;SHT30;66893;44.316;0.092;2023-11-22T08:59:52;17.51;59.24
76785;SHT30;66893;44.316;0.092;2023-11-22T09:02:19;17.52;59.35
76785;SHT30;66893;44.316;0.092;2023-11-22T09:04:47;17.55;59.26
76785;SHT30;66893;44.316;0.092;2023-11-22T09:07:12;17.54;59.28
76785;SHT30;66893;44.316;0.092;2023-11-22T09:09:40;17.57;59.28
76785;SHT30;66893;44.316;0.092;2023-11-22T09:12:07;17.58;59.26
76785;SHT30;66893;44.316;0.092;2023-11-22T09:14:40;17.58;59.26
76785;SHT30;66893;44.316;0.092;2023-11-22T09:17:07;17.58;59.25
76785;SHT30;66893;44.316;0.092;2023-11-22T09:19:34;17.62;59.26
76785;SHT30;66893;44.316;0.092;2023-11-22T09:22:01;17.59;59.29
76785;SHT30;66893;44.316;0.092;2023-11-22T09:24:26;17.61;59.20
76785;SHT30;66893;44.316;0.092;2023-11-22T09:26:52;17.64;59.10
76785;SHT30;66893;44.316;0.092;2023-11-22T09:29:18;17.64;59.12
76785;SHT30;66893;44.316;0.092;2023-11-22T09:31:43;17.64;59.18
76785;SHT30;66893;44.316;0.092;2023-11-22T09:34:11;17.65;59.17
76785;SHT30;66893;44.316;0.092;2023-11-22T09:36:38;17.69;59.17
76785;SHT30;66893;44.316;0.092;2023-11-22T09:39:03;17.65;59.16
76785;SHT30;66893;44.316;0.092;2023-11-22T09:41:36;17.67;59.15
76785;SHT30;66893;44.316;0.092;2023-11-22T09:44:03;17.68;59.19
76785;SHT30;66893;44.316;0.092;2023-11-22T09:46:29;17.71;59.16
76785;SHT30;66893;44.316;0.092;2023-11-22T09:48:56;17.72;59.20
76785;SHT30;66893;44.316;0.092;2023-11-22T09:51:32;17.71;59.15
76785;SHT30;66893;44.316;0.092;2023-11-22T09:53:59;17.74;59.20
76785;SHT30;66893;44.316;0.092;2023-11-22T09:56:29;17.78;59.45
76785;SHT30;66893;44.316;0.092;2023-11-22T09:58:57;17.79;59.39
76785;SHT30;66893;44.316;0.092;2023-11-22T10:01:26;17.83;59.33
76785;SHT30;66893;44.316;0.092;2023-11-22T10:03:54;17.83;59.26
76785;SHT30;66893;44.316;0.092;2023-11-22T10:06:20;17.86;59.25
76785;SHT30;66893;44.316;0.092;2023-11-22T10:08:46;17.93;59.19
76785;SHT30;66893;44.316;0.092;2023-11-22T10:11:17;17.96;59.45
76785;SHT30;66893;44.316;0.092;2023-11-22T10:13:44;17.97;59.58
76785;SHT30;66893;44.316;0.092;2023-11-22T10:16:13;18.02;59.56
76785;SHT30;66893;44.316;0.092;2023-11-22T10:18:48;18.12;59.52
76785;SHT30;66893;44.316;0.092;2023-11-22T10:23:46;18.26;59.42
76785;SHT30;66893;44.316;0.092;2023-11-22T10:26:13;18.33;59.33
76785;SHT30;66893;44.316;0.092;2023-11-22T10:28:41;18.37;59.26
76785;SHT30;66893;44.316;0.092;2023-11-22T10:31:08;18.47;59.23
76785;SHT30;66893;44.316;0.092;2023-11-22T10:33:47;18.51;58.94
76785;SHT30;66893;44.316;0.092;2023-11-22T10:36:14;18.52;58.83
76785;SHT30;66893;44.316;0.092;2023-11-22T10:38:41;18.51;58.66
76785;SHT30;66893;44.316;0.092;2023-11-22T10:41:08;18.51;58.63
76785;SHT30;66893;44.316;0.092;2023-11-22T10:43:37;18.51;58.62
76785;SHT30;66893;44.316;0.092;2023-11-22T10:46:03;18.54;58.62
76785;SHT30;66893;44.316;0.092;2023-11-22T10:48:31;18.55;58.62
76785;SHT30;66893;44.316;0.092;2023-11-22T10:51:00;18.52;58.52
76785;SHT30;66893;44.316;0.092;2023-11-22T10:53:36;18.57;58.54
76785;SHT30;66893;44.316;0.092;2023-11-22T10:58:32;18.58;58.43
76785;SHT30;66893;44.316;0.092;2023-11-22T11:00:58;18.59;58.48
76785;SHT30;66893;44.316;0.092;2023-11-22T11:03:26;18.65;58.39
76785;SHT30;66893;44.316;0.092;2023-11-22T11:05:59;18.64;58.37
76785;SHT30;66893;44.316;0.092;2023-11-22T11:08:29;18.68;58.34
76785;SHT30;66893;44.316;0.092;2023-11-22T11:10:56;18.68;58.18
76785;SHT30;66893;44.316;0.092;2023-11-22T11:13:23;18.71;58.23
76785;SHT30;66893;44.316;0.092;2023-11-22T11:15:49;18.71;58.16
76785;SHT30;66893;44.316;0.092;2023-11-22T11:18:17;18.69;58.12
76785;SHT30;66893;44.316;0.092;2023-11-22T11:20:53;18.72;58.14
76785;SHT30;66893;44.316;0.092;2023-11-22T11:23:28;18.72;58.13
76785;SHT30;66893;44.316;0.092;2023-11-22T11:25:58;18.72;58.09
76785;SHT30;66893;44.316;0.092;2023-11-22T11:28:25;18.73;58.05
76785;SHT30;66893;44.316;0.092;2023-11-22T11:30:52;18.79;58.05
76785;SHT30;66893;44.316;0.092;2023-11-22T11:33:32;18.81;58.03
76785;SHT30;66893;44.316;0.092;2023-11-22T11:36:00;18.82;58.02
76785;SHT30;66893;44.316;0.092;2023-11-22T11:38:35;18.86;57.99
76785;SHT30;66893;44.316;0.092;2023-11-22T11:41:12;18.86;58.03
76785;SHT30;66893;44.316;0.092;2023-11-22T11:43:48;18.89;57.75
76785;SHT30;66893;44.316;0.092;2023-11-22T11:46:15;18.92;57.16
76785;SHT30;66893;44.316;0.092;2023-11-22T11:48:50;18.91;57.23
76785;SHT30;66893;44.316;0.092;2023-11-22T11:51:21;18.92;56.86
76785;SHT30;66893;44.316;0.092;2023-11-22T11:53:48;18.94;57.01
76785;SHT30;66893;44.316;0.092;2023-11-22T11:56:14;18.95;56.94
76785;SHT30;66893;44.316;0.092;2023-11-22T11:58:44;18.98;57.04
76785;SHT30;66893;44.316;0.092;2023-11-22T12:01:13;18.99;56.89
76785;SHT30;66893;44.316;0.092;2023-11-22T12:03:39;18.99;56.90
76785;SHT30;66893;44.316;0.092;2023-11-22T12:06:07;19.02;56.92
76785;SHT30;66893;44.316;0.092;2023-11-22T12:08:33;19.03;56.89
76785;SHT30;66893;44.316;0.092;2023-11-22T12:11:05;19.10;56.79
76785;SHT30;66893;44.316;0.092;2023-11-22T12:13:35;19.19;56.74
76785;SHT30;66893;44.316;0.092;2023-11-22T12:16:07;19.23;56.62
76785;SHT30;66893;44.316;0.092;2023-11-22T12:18:43;19.31;56.68
76785;SHT30;66893;44.316;0.092;2023-11-22T12:21:09;19.35;56.44
76785;SHT30;66893;44.316;0.092;2023-11-22T12:23:42;19.38;56.37
76785;SHT30;66893;44.316;0.092;2023-11-22T12:26:19;19.43;56.26
76785;SHT30;66893;44.316;0.092;2023-11-22T12:28:46;19.44;56.20
76785;SHT30;66893;44.316;0.092;2023-11-22T12:31:14;19.53;56.06
76785;SHT30;66893;44.316;0.092;2023-11-22T12:33:40;19.57;55.94
76785;SHT30;66893;44.316;0.092;2023-11-22T12:36:07;19.61;55.87
76785;SHT30;66893;44.316;0.092;2023-11-22T12:38:35;19.71;55.75
76785;SHT30;66893;44.316;0.092;2023-11-22T12:41:00;19.77;55.67
76785;SHT30;66893;44.316;0.092;2023-11-22T12:43:29;19.86;55.63
76785;SHT30;66893;44.316;0.092;2023-11-22T12:46:07;19.89;55.19
76785;SHT30;66893;44.316;0.092;2023-11-22T12:48:33;19.88;54.42
76785;SHT30;66893;44.316;0.092;2023-11-22T12:51:00;19.89;54.18
76785;SHT30;66893;44.316;0.092;2023-11-22T12:53:26;19.92;54.05
76785;SHT30;66893;44.316;0.092;2023-11-22T12:55:56;19.96;53.93
76785;SHT30;66893;44.316;0.092;2023-11-22T12:58:23;19.95;53.58
76785;SHT30;66893;44.316;0.092;2023-11-22T13:00:51;19.93;53.40
76785;SHT30;66893;44.316;0.092;2023-11-22T13:03:19;19.96;53.23
76785;SHT30;66893;44.316;0.092;2023-11-22T13:05:45;19.89;52.95
76785;SHT30;66893;44.316;0.092;2023-11-22T13:08:12;19.86;52.65
76785;SHT30;66893;44.316;0.092;2023-11-22T13:10:45;19.83;52.68
76785;SHT30;66893;44.316;0.092;2023-11-22T13:13:21;19.81;52.34
76785;SHT30;66893;44.316;0.092;2023-11-22T13:15:48;19.78;52.14
76785;SHT30;66893;44.316;0.092;2023-11-22T13:18:15;19.77;52.04
76785;SHT30;66893;44.316;0.092;2023-11-22T13:20:41;19.77;52.00
76785;SHT30;66893;44.316;0.092;2023-11-22T13:23:08;19.82;52.19
76785;SHT30;66893;44.316;0.092;2023-11-22T13:25:34;19.86;52.45
76785;SHT30;66893;44.316;0.092;2023-11-22T13:27:59;19.90;52.54
76785;SHT30;66893;44.316;0.092;2023-11-22T13:30:25;20.02;52.65
76785;SHT30;66893;44.316;0.092;2023-11-22T13:32:55;20.04;52.69
76785;SHT30;66893;44.316;0.092;2023-11-22T13:35:27;20.08;52.76
76785;SHT30;66893;44.316;0.092;2023-11-22T13:37:59;20.12;52.80
76785;SHT30;66893;44.316;0.092;2023-11-22T13:40:27;20.19;52.22
76785;SHT30;66893;44.316;0.092;2023-11-22T13:42:56;20.22;51.95
76785;SHT30;66893;44.316;0.092;2023-11-22T13:45:21;20.27;51.77
76785;SHT30;66893;44.316;0.092;2023-11-22T13:47:52;20.37;51.69
76785;SHT30;66893;44.316;0.092;2023-11-22T13:50:20;20.39;51.69
76785;SHT30;66893;44.316;0.092;2023-11-22T13:52:49;20.33;51.63
76785;SHT30;66893;44.316;0.092;2023-11-22T13:55:15;20.33;51.60
76785;SHT30;66893;44.316;0.092;2023-11-22T13:57:44;20.33;51.55
76785;SHT30;66893;44.316;0.092;2023-11-22T14:00:10;20.30;51.57
76785;SHT30;66893;44.316;0.092;2023-11-22T14:02:39;20.24;51.63
76785;SHT30;66893;44.316;0.092;2023-11-22T14:05:06;20.20;51.60
76785;SHT30;66893;44.316;0.092;2023-11-22T14:07:34;20.19;51.52
76785;SHT30;66893;44.316;0.092;2023-11-22T14:10:00;20.17;51.55
76785;SHT30;66893;44.316;0.092;2023-11-22T14:12:25;20.16;51.59
76785;SHT30;66893;44.316;0.092;2023-11-22T14:14:51;20.13;51.59
76785;SHT30;66893;44.316;0.092;2023-11-22T14:17:16;20.10;51.54
76785;SHT30;66893;44.316;0.092;2023-11-22T14:19:45;20.10;51.44
76785;SHT30;66893;44.316;0.092;2023-11-22T14:22:12;20.08;51.43
76785;SHT30;66893;44.316;0.092;2023-11-22T14:24:39;20.05;51.43
76785;SHT30;66893;44.316;0.092;2023-11-22T14:27:04;20.05;51.38
76785;SHT30;66893;44.316;0.092;2023-11-22T14:29:30;20.05;51.28
76785;SHT30;66893;44.316;0.092;2023-11-22T14:31:56;20.05;51.25
76785;SHT30;66893;44.316;0.092;2023-11-22T14:34:22;20.04;51.14
76785;SHT30;66893;44.316;0.092;2023-11-22T14:36:47;20.00;51.20
76785;SHT30;66893;44.316;0.092;2023-11-22T14:39:12;19.99;51.20
76785;SHT30;66893;44.316;0.092;2023-11-22T14:41:40;19.99;51.16
76785;SHT30;66893;44.316;0.092;2023-11-22T14:44:06;19.96;51.15
76785;SHT30;66893;44.316;0.092;2023-11-22T14:46:31;19.92;51.04
76785;SHT30;66893;44.316;0.092;2023-11-22T14:48:57;19.92;50.91
76785;SHT30;66893;44.316;0.092;2023-11-22T14:51:23;19.88;50.90
76785;SHT30;66893;44.316;0.092;2023-11-22T14:53:49;19.86;50.92
76785;SHT30;66893;44.316;0.092;2023-11-22T14:56:15;19.85;50.77
76785;SHT30;66893;44.316;0.092;2023-11-22T14:58:40;19.83;50.96
76785;SHT30;66893;44.316;0.092;2023-11-22T15:01:06;19.86;51.11
76785;SHT30;66893;44.316;0.092;2023-11-22T15:03:34;19.83;51.34
76785;SHT30;66893;44.316;0.092;2023-11-22T15:06:01;19.86;51.46
76785;SHT30;66893;44.316;0.092;2023-11-22T15:08:26;19.86;51.61
76785;SHT30;66893;44.316;0.092;2023-11-22T15:10:55;19.88;51.59
76785;SHT30;66893;44.316;0.092;2023-11-22T15:13:20;19.90;51.67
76785;SHT30;66893;44.316;0.092;2023-11-22T15:15:46;19.92;51.61
76785;SHT30;66893;44.316;0.092;2023-11-22T15:18:11;19.93;51.71
76785;SHT30;66893;44.316;0.092;2023-11-22T15:20:37;19.92;51.66
76785;SHT30;66893;44.316;0.092;2023-11-22T15:23:03;19.92;51.71
76785;SHT30;66893;44.316;0.092;2023-11-22T15:25:31;19.93;51.62
76785;SHT30;66893;44.316;0.092;2023-11-22T15:27:56;19.90;51.65
76785;SHT30;66893;44.316;0.092;2023-11-22T15:30:24;19.89;51.55
76785;SHT30;66893;44.316;0.092;2023-11-22T15:32:50;19.89;51.56